KSJN/SJN METAR and TAF weather

Enter ICAO airport designator
Station Type Date Time Source
KSJN METAR 2022/05/24 11:54 UTC NOAA

KSJN 241154Z AUTO 28009KT 10SM CLR 10/M11 A2996 RMK AO2 SLP077 T01001111 10167 20100 53013


Station Type Date Time Source
KSJN Decoded METAR 2022/05/24 11:54 UTC NOAA

ST JOHNS INDUSTRIAL AIRPRK, AZ, United States (KSJN) 34-31N 109-23W 1745M
May 24, 2022 - 07:54 AM EDT / 2022.05.24 1154 UTC
Wind: from the W (280 degrees) at 10 MPH (9 KT):0
Visibility: 10 mile(s):0
Sky conditions: clear
Temperature: 50.0 F (10.0 C)
Dew Point: 12.0 F (-11.1 C)
Relative Humidity: 21%
Pressure (altimeter): 29.96 in. Hg (1014 hPa)
Pressure tendency: 0.04 inches (1.3 hPa) higher than three hours ago
ob: KSJN 241154Z AUTO 28009KT 10SM CLR 10/M11 A2996 RMK AO2 SLP077 T01001111 10167 20100 53013
cycle: 12

Station Type Date Time Source
KSJN TAF UTC NOAA

Error!

Example: see airport list